Time;durP1;ratioP1;P1;durP2;ratioP2;P2;SDS_P1;SDS_P2;PMS_P1;PMS_P2;Temp;Humidity;BMP_temperature;BMP_pressure;BME280_temperature;BME280_humidity;BME280_pressure;Samples;Min_cycle;Max_cycle;Signal;HPM_P1;HPM_P2
2022/12/06 00:01:32;;;;;;;13.98;11.55;;;8.50;1.00;;;;;;5019315;28;20612;-66
2022/12/06 00:04:01;;;;;;;13.75;12.20;;;8.70;1.00;;;;;;5013218;28;20116;-66
2022/12/06 00:06:29;;;;;;;15.43;12.00;;;8.70;1.00;;;;;;5012200;28;20065;-65
2022/12/06 00:08:56;;;;;;;13.00;11.40;;;8.50;1.00;;;;;;5001819;28;20031;-66
2022/12/06 00:14:44;;;;;;;12.82;11.05;;;8.40;1.00;;;;;;5013907;28;20533;-66
2022/12/06 00:17:10;;;;;;;13.30;11.82;;;8.40;1.00;;;;;;5010020;28;20038;-66
2022/12/06 00:19:35;;;;;;;11.50;10.25;;;8.50;1.00;;;;;;5010686;28;20510;-66
2022/12/06 00:22:01;;;;;;;14.57;11.27;;;8.60;1.00;;;;;;5025895;28;20048;-66
2022/12/06 00:24:27;;;;;;;12.80;11.25;;;8.60;1.00;;;;;;5032653;28;20021;-66
2022/12/06 00:26:52;;;;;;;11.65;9.80;;;8.70;1.00;;;;;;5031040;28;20116;-66
2022/12/06 00:29:21;;;;;;;11.38;10.13;;;8.80;1.00;;;;;;5031460;28;20029;-65
2022/12/06 00:31:48;;;;;;;14.88;10.18;;;8.40;1.00;;;;;;5020565;28;20479;-66
2022/12/06 00:34:14;;;;;;;12.85;10.13;;;8.60;1.00;;;;;;5032095;28;20026;-66
2022/12/06 00:36:41;;;;;;;11.77;10.43;;;8.40;1.00;;;;;;5032416;28;20040;-66
2022/12/06 00:39:16;;;;;;;11.00;9.63;;;8.60;1.00;;;;;;5032381;28;20021;-66
2022/12/06 00:41:42;;;;;;;14.25;9.85;;;8.70;1.00;;;;;;5032198;28;20079;-66
2022/12/06 00:44:09;;;;;;;10.48;9.15;;;8.60;1.00;;;;;;5030625;28;20030;-66
2022/12/06 00:46:35;;;;;;;11.23;8.65;;;8.60;1.00;;;;;;5024114;28;20029;-66
2022/12/06 00:49:03;;;;;;;10.95;8.63;;;8.40;1.00;;;;;;5031826;28;20068;-66
2022/12/06 00:51:31;;;;;;;11.93;9.45;;;8.50;1.00;;;;;;5030636;28;20427;-66
2022/12/06 00:53:57;;;;;;;10.85;9.27;;;8.60;1.00;;;;;;5031855;28;20474;-66
2022/12/06 00:56:23;;;;;;;9.07;7.90;;;8.70;1.00;;;;;;5030609;28;20152;-66
2022/12/06 00:58:49;;;;;;;11.13;8.52;;;8.70;1.00;;;;;;5031106;28;20179;-66
2022/12/06 01:11:37;;;;;;;10.07;8.68;;;8.30;1.00;;;;;;5001281;28;20569;-66
2022/12/06 01:14:03;;;;;;;9.67;8.03;;;8.30;1.00;;;;;;4996994;28;20528;-66
2022/12/06 01:16:30;;;;;;;8.95;7.82;;;8.30;1.00;;;;;;5022357;28;20025;-65
2022/12/06 01:18:58;;;;;;;9.37;7.97;;;8.30;1.00;;;;;;5031459;28;20021;-66
2022/12/06 01:21:25;;;;;;;11.65;8.23;;;8.30;1.00;;;;;;5031612;28;20021;-66
2022/12/06 01:23:53;;;;;;;10.50;8.20;;;8.50;1.00;;;;;;5031400;28;20068;-66
2022/12/06 01:26:24;;;;;;;10.67;8.60;;;8.50;1.00;;;;;;5031560;28;20013;-66
2022/12/06 01:28:50;;;;;;;9.30;7.68;;;8.60;1.00;;;;;;5026560;28;20117;-65
2022/12/06 01:31:16;;;;;;;8.00;7.13;;;8.50;1.00;;;;;;5031487;28;20407;-66
2022/12/06 01:33:42;;;;;;;8.30;7.27;;;8.50;1.00;;;;;;5030071;28;20029;-66
2022/12/06 01:36:14;;;;;;;9.97;7.70;;;8.50;1.00;;;;;;5031606;28;20129;-66
2022/12/06 01:38:39;;;;;;;9.70;7.93;;;8.50;1.00;;;;;;5022699;28;20030;-66
2022/12/06 01:41:05;;;;;;;7.90;6.90;;;8.60;1.00;;;;;;5028493;28;20494;-66
2022/12/06 01:43:40;;;;;;;7.97;6.70;;;8.60;1.00;;;;;;5027050;28;20108;-66
2022/12/06 01:46:34;;;;;;;7.60;6.63;;;8.60;1.00;;;;;;5028232;28;20084;-66
2022/12/06 01:49:12;;;;;;;9.43;7.78;;;8.60;1.00;;;;;;5031451;28;20026;-66
2022/12/06 01:52:00;;;;;;;9.35;7.15;;;8.50;1.00;;;;;;5003891;28;20092;-66
2022/12/06 01:54:26;;;;;;;8.20;7.40;;;8.50;1.00;;;;;;5031055;28;20400;-65
2022/12/06 01:56:54;;;;;;;7.45;6.28;;;8.50;1.00;;;;;;5024010;28;20106;-66
2022/12/06 01:59:22;;;;;;;8.90;7.97;;;8.50;1.00;;;;;;5030355;28;20111;-66
2022/12/06 02:01:48;;;;;;;9.77;7.70;;;8.40;1.00;;;;;;5030966;28;20025;-66
2022/12/06 02:04:15;;;;;;;8.03;6.97;;;8.40;1.00;;;;;;5030531;28;20361;-66
2022/12/06 02:06:42;;;;;;;9.90;8.10;;;8.50;1.00;;;;;;5019787;28;20018;-65
2022/12/06 02:09:09;;;;;;;8.43;7.23;;;8.50;1.00;;;;;;5030511;28;20022;-66
2022/12/06 02:11:35;;;;;;;9.13;7.60;;;8.50;1.00;;;;;;5014448;28;20164;-65
2022/12/06 02:14:04;;;;;;;8.20;7.37;;;8.50;1.00;;;;;;5028936;28;20048;-66
2022/12/06 02:16:51;;;;;;;9.00;7.37;;;8.40;1.00;;;;;;5030917;28;20103;-65
2022/12/06 02:19:38;;;;;;;8.77;7.60;;;8.40;1.00;;;;;;5033274;28;20538;-65
2022/12/06 02:22:14;;;;;;;8.50;7.10;;;8.40;1.00;;;;;;5031536;28;20067;-66
2022/12/06 02:25:08;;;;;;;8.73;6.88;;;8.50;1.00;;;;;;5033032;28;20025;-65
2022/12/06 02:27:50;;;;;;;8.57;7.13;;;8.40;1.00;;;;;;5033902;28;20017;-65
2022/12/06 02:30:46;;;;;;;8.40;6.95;;;8.50;1.00;;;;;;5033784;28;20045;-66
2022/12/06 02:33:22;;;;;;;;;;;8.40;1.00;;;;;;5011233;28;20116;-65
2022/12/06 02:36:07;;;;;;;7.28;5.95;;;8.40;1.00;;;;;;5017966;28;19908;-66
2022/12/06 02:38:42;;;;;;;7.55;6.18;;;8.40;1.00;;;;;;5034465;28;20475;-65
2022/12/06 02:41:15;;;;;;;8.75;6.28;;;8.40;1.00;;;;;;5030717;28;20480;-65
2022/12/06 02:43:46;;;;;;;6.43;5.50;;;8.40;1.00;;;;;;5023309;28;20060;-65
2022/12/06 02:46:13;;;;;;;9.83;6.20;;;8.40;1.00;;;;;;5023930;28;20037;-65
2022/12/06 02:48:40;;;;;;;6.87;5.47;;;8.30;1.00;;;;;;5034513;28;20116;-65
2022/12/06 02:51:13;;;;;;;8.67;6.10;;;8.30;1.00;;;;;;5034085;28;20175;-65
2022/12/06 02:53:46;;;;;;;7.03;5.63;;;8.20;1.00;;;;;;5034091;28;20037;-65
2022/12/06 02:56:14;;;;;;;7.57;5.67;;;8.30;1.00;;;;;;5025422;28;20030;-65
2022/12/06 02:58:39;;;;;;;6.97;6.20;;;8.30;1.00;;;;;;5034224;28;20022;-65
2022/12/06 03:01:25;;;;;;;8.13;5.93;;;8.20;1.00;;;;;;5032220;28;20099;-65
2022/12/06 03:04:08;;;;;;;7.73;5.97;;;8.20;1.00;;;;;;5013708;28;20522;-65
2022/12/06 03:06:39;;;;;;;6.77;5.40;;;8.20;1.00;;;;;;5017752;28;20136;-65
2022/12/06 03:09:11;;;;;;;13.20;5.67;;;8.20;1.00;;;;;;5025375;28;20045;-65
2022/12/06 03:11:37;;;;;;;8.17;6.50;;;8.20;1.00;;;;;;5017988;28;20038;-65
2022/12/06 03:14:12;;;;;;;7.43;5.90;;;8.20;1.00;;;;;;5027919;28;20033;-65
2022/12/06 03:16:59;;;;;;;7.80;6.33;;;8.20;1.00;;;;;;5033836;28;20032;-65
2022/12/06 03:19:28;;;;;;;7.20;5.43;;;8.20;1.00;;;;;;5027382;28;20022;-65
2022/12/06 03:22:00;;;;;;;7.50;5.88;;;8.20;1.00;;;;;;5026644;28;20029;-65
2022/12/06 03:24:28;;;;;;;8.63;6.20;;;8.20;1.00;;;;;;5033789;28;20021;-65
2022/12/06 03:26:56;;;;;;;7.00;6.13;;;8.20;1.00;;;;;;5025588;28;20029;-65
2022/12/06 03:29:25;;;;;;;7.27;6.10;;;8.20;1.00;;;;;;5031470;28;20113;-65
2022/12/06 03:31:51;;;;;;;11.67;6.07;;;8.20;1.00;;;;;;5034058;28;20112;-65
2022/12/06 03:34:24;;;;;;;8.57;6.00;;;8.30;1.00;;;;;;5033496;28;20063;-65
2022/12/06 03:36:52;;;;;;;8.37;6.20;;;8.20;1.00;;;;;;5024472;28;20033;-65
2022/12/06 03:39:30;;;;;;;7.53;6.47;;;8.20;1.00;;;;;;5028165;28;20033;-65
2022/12/06 03:41:58;;;;;;;7.60;5.67;;;8.20;1.00;;;;;;5011982;28;20482;-65
2022/12/06 03:44:25;;;;;;;8.30;5.53;;;8.10;1.00;;;;;;5031761;28;20032;-65
2022/12/06 03:47:12;;;;;;;6.80;5.37;;;8.20;1.00;;;;;;5033303;28;20029;-65
2022/12/06 03:49:51;;;;;;;6.10;5.37;;;8.10;1.00;;;;;;5031458;28;20041;-65
2022/12/06 03:52:17;;;;;;;8.50;6.20;;;8.20;1.00;;;;;;5032988;28;20029;-65
2022/12/06 03:54:43;;;;;;;8.87;6.13;;;8.20;1.00;;;;;;5029028;28;20045;-65
2022/12/06 03:57:09;;;;;;;9.27;6.67;;;8.10;1.00;;;;;;5033246;28;20108;-65
2022/12/06 03:59:35;;;;;;;8.47;6.50;;;8.10;1.00;;;;;;5032831;28;20083;-66
2022/12/06 04:02:00;;;;;;;8.63;6.20;;;8.10;1.00;;;;;;5032822;28;20030;-65
2022/12/06 04:04:26;;;;;;;7.93;6.50;;;8.10;1.00;;;;;;5032805;28;20108;-65
2022/12/06 04:06:52;;;;;;;6.93;6.30;;;8.00;1.00;;;;;;5028700;28;20048;-66
2022/12/06 04:12:59;;;;;;;8.77;7.28;;;8.10;1.00;;;;;;5017022;28;20406;-65
2022/12/06 04:14:47;;;;;;;6.93;5.97;;;8.10;1.00;;;;;;5032525;28;20379;-65
2022/12/06 04:19:57;;;;;;;9.20;6.50;;;8.10;1.00;;;;;;5032862;28;20117;-65
2022/12/06 04:25:07;;;;;;;7.73;6.17;;;7.90;1.00;;;;;;5032844;28;20084;-65
2022/12/06 04:38:43;;;;;;;8.60;7.30;;;7.90;1.00;;;;;;5016075;28;20130;-65
2022/12/06 04:43:40;;;;;;;9.17;8.20;;;7.90;1.00;;;;;;5032404;28;20443;-65
2022/12/06 04:44:07;;;;;;;8.93;8.03;;;7.90;1.00;;;;;;5031982;28;20037;-65
2022/12/06 04:46:33;;;;;;;12.57;8.15;;;7.90;1.00;;;;;;5031874;28;20190;-65
2022/12/06 04:48:59;;;;;;;9.47;7.00;;;7.80;1.00;;;;;;5025082;28;20210;-65
2022/12/06 04:51:25;;;;;;;7.67;6.77;;;7.90;1.00;;;;;;5031851;28;20102;-65
2022/12/06 04:53:50;;;;;;;10.93;7.80;;;7.80;1.00;;;;;;5011569;28;20052;-65
2022/12/06 04:56:16;;;;;;;10.83;7.33;;;7.80;1.00;;;;;;5013353;28;20044;-65
2022/12/06 04:58:42;;;;;;;9.00;7.47;;;7.80;1.00;;;;;;5012663;28;20100;-65
2022/12/06 05:01:08;;;;;;;8.90;7.90;;;7.80;1.00;;;;;;5009334;28;20042;-65
2022/12/06 05:03:34;;;;;;;10.40;8.07;;;7.70;1.00;;;;;;5008681;28;20045;-65
2022/12/06 05:06:00;;;;;;;9.60;7.73;;;7.80;1.00;;;;;;5004457;28;20029;-65
2022/12/06 05:08:26;;;;;;;8.23;7.33;;;7.70;1.00;;;;;;5015538;28;20056;-65
2022/12/06 05:10:52;;;;;;;10.10;7.97;;;7.70;1.00;;;;;;5031866;28;20045;-65
2022/12/06 05:13:19;;;;;;;8.50;7.67;;;7.70;1.00;;;;;;5029396;28;20087;-64
2022/12/06 05:15:51;;;;;;;11.57;7.53;;;7.70;1.00;;;;;;5024765;28;20016;-65
2022/12/06 05:18:17;;;;;;;8.70;7.57;;;7.70;1.00;;;;;;5024464;28;20017;-64
2022/12/06 05:20:43;;;;;;;8.63;7.27;;;7.70;1.00;;;;;;5031556;28;20426;-64
2022/12/06 05:23:08;;;;;;;9.63;7.13;;;7.60;1.00;;;;;;5031662;28;20034;-64
2022/12/06 05:25:34;;;;;;;10.43;8.33;;;7.60;1.00;;;;;;5031539;28;20036;-64
2022/12/06 05:27:59;;;;;;;10.67;7.90;;;7.60;1.00;;;;;;5017793;28;20036;-64
2022/12/06 05:30:25;;;;;;;13.67;8.90;;;7.60;1.00;;;;;;5031657;28;20034;-64
2022/12/06 05:32:50;;;;;;;10.77;8.53;;;7.50;1.00;;;;;;5025746;28;20083;-64
2022/12/06 05:35:38;;;;;;;10.87;8.80;;;7.50;1.00;;;;;;5017645;28;20127;-64
2022/12/06 05:38:03;;;;;;;10.97;8.07;;;7.50;1.00;;;;;;5026285;28;20037;-64
2022/12/06 05:40:29;;;;;;;9.57;7.40;;;7.50;1.00;;;;;;5031757;28;20022;-64
2022/12/06 05:42:54;;;;;;;9.73;7.97;;;7.50;1.00;;;;;;5024182;28;20360;-64
2022/12/06 05:45:20;;;;;;;10.33;8.20;;;7.50;1.00;;;;;;5029935;28;20112;-64
2022/12/06 05:47:45;;;;;;;10.53;8.17;;;7.30;1.00;;;;;;5031664;28;20045;-64
2022/12/06 05:50:11;;;;;;;8.10;7.30;;;7.30;1.00;;;;;;5030955;28;20383;-64
2022/12/06 05:52:37;;;;;;;10.30;8.77;;;7.20;1.00;;;;;;5031593;28;20060;-64
2022/12/06 05:55:03;;;;;;;11.40;8.00;;;7.20;1.00;;;;;;5019439;28;20028;-64
2022/12/06 05:57:28;;;;;;;12.10;9.20;;;7.10;1.00;;;;;;5035306;28;20419;-64
2022/12/06 05:59:54;;;;;;;11.77;8.33;;;7.30;1.00;;;;;;5035683;28;20034;-64
2022/12/06 06:02:19;;;;;;;10.53;8.30;;;7.30;1.00;;;;;;5035086;28;20013;-64
2022/12/06 06:04:45;;;;;;;8.70;7.77;;;7.40;1.00;;;;;;5035477;28;20033;-64
2022/12/06 06:07:10;;;;;;;9.73;7.90;;;7.20;1.00;;;;;;5027552;28;20459;-65
2022/12/06 06:09:36;;;;;;;8.03;6.80;;;7.20;1.00;;;;;;5014996;28;20042;-65
2022/12/06 06:12:02;;;;;;;7.93;7.10;;;7.10;1.00;;;;;;5034482;28;20032;-64
2022/12/06 06:14:27;;;;;;;7.83;7.03;;;7.10;1.00;;;;;;5035238;28;20443;-64
2022/12/06 06:16:53;;;;;;;8.30;7.00;;;7.00;1.00;;;;;;5034657;28;20690;-64
2022/12/06 06:19:21;;;;;;;8.13;7.23;;;7.00;1.00;;;;;;5034842;28;20423;-64
2022/12/06 06:21:48;;;;;;;8.43;7.07;;;7.10;1.00;;;;;;5024289;28;20548;-64
2022/12/06 06:24:13;;;;;;;8.97;7.97;;;7.10;1.00;;;;;;5033550;28;20029;-64
2022/12/06 06:26:39;;;;;;;7.57;6.67;;;7.10;1.00;;;;;;5034864;28;20331;-64
2022/12/06 06:29:04;;;;;;;8.87;7.43;;;6.90;1.00;;;;;;5034885;28;20021;-64
2022/12/06 06:31:30;;;;;;;8.83;7.53;;;7.10;1.00;;;;;;5030709;28;20108;-64
2022/12/06 06:33:56;;;;;;;8.57;6.97;;;7.10;1.00;;;;;;5032316;28;20031;-64
2022/12/06 06:36:21;;;;;;;10.07;7.07;;;7.10;1.00;;;;;;5034527;28;20042;-66
2022/12/06 06:38:47;;;;;;;7.20;6.27;;;7.20;1.00;;;;;;5034727;28;20067;-64
2022/12/06 06:41:12;;;;;;;9.50;7.17;;;7.20;1.00;;;;;;5034504;28;20034;-64
2022/12/06 06:43:38;;;;;;;9.27;6.57;;;7.20;1.00;;;;;;5034429;28;20029;-65
2022/12/06 06:46:05;;;;;;;8.73;7.30;;;7.20;1.00;;;;;;5032205;28;20030;-65
2022/12/06 06:48:34;;;;;;;7.63;6.83;;;7.20;1.00;;;;;;5026618;28;20075;-64
2022/12/06 06:51:08;;;;;;;7.57;6.83;;;7.20;1.00;;;;;;5034219;28;20036;-64
2022/12/06 06:53:34;;;;;;;7.83;6.40;;;7.10;1.00;;;;;;5034086;28;20402;-64
2022/12/06 06:56:00;;;;;;;8.40;6.83;;;7.10;1.00;;;;;;5034177;28;20044;-64
2022/12/06 06:58:26;;;;;;;9.37;6.20;;;7.00;1.00;;;;;;5029391;28;20388;-64
2022/12/06 07:00:56;;;;;;;9.27;6.70;;;7.10;1.00;;;;;;5030113;28;20463;-64
2022/12/06 07:03:22;;;;;;;8.80;6.43;;;7.10;1.00;;;;;;5029917;28;20037;-64
2022/12/06 07:05:56;;;;;;;9.20;7.50;;;7.00;1.00;;;;;;5027428;28;20030;-64
2022/12/06 07:08:23;;;;;;;8.00;7.20;;;7.00;1.00;;;;;;5014601;28;20024;-64
2022/12/06 07:10:49;;;;;;;11.87;7.97;;;7.10;1.00;;;;;;5033912;28;20036;-64
2022/12/06 07:13:15;;;;;;;10.33;8.33;;;7.10;1.00;;;;;;5026091;28;20026;-64
2022/12/06 07:15:41;;;;;;;9.80;7.60;;;7.10;1.00;;;;;;5033937;28;20021;-63
2022/12/06 07:18:07;;;;;;;9.40;7.93;;;7.10;1.00;;;;;;5032413;28;20137;-63
2022/12/06 07:20:32;;;;;;;9.87;8.00;;;7.10;1.00;;;;;;5018546;28;20021;-64
2022/12/06 07:22:58;;;;;;;11.90;8.07;;;7.10;1.00;;;;;;5032837;28;20091;-64
2022/12/06 07:25:24;;;;;;;11.03;7.97;;;7.10;1.00;;;;;;5031227;28;20160;-63
2022/12/06 07:27:49;;;;;;;13.40;8.90;;;7.10;1.00;;;;;;5020149;28;20018;-64
2022/12/06 07:30:15;;;;;;;13.40;8.47;;;6.90;1.00;;;;;;5029226;28;20028;-64
2022/12/06 07:32:41;;;;;;;11.20;8.23;;;7.00;1.00;;;;;;5033758;28;20025;-64
2022/12/06 07:35:07;;;;;;;10.47;8.67;;;7.00;1.00;;;;;;5033477;28;20120;-64
2022/12/06 07:37:32;;;;;;;12.23;7.93;;;7.00;1.00;;;;;;5033250;28;20067;-64
2022/12/06 07:39:58;;;;;;;11.80;8.73;;;7.10;1.00;;;;;;5033437;28;20104;-64
2022/12/06 07:45:11;;;;;;;12.98;8.63;;;7.00;1.00;;;;;;5030715;28;20098;-64
2022/12/06 07:47:40;;;;;;;19.20;9.30;;;6.90;1.00;;;;;;5033275;28;20101;-64
2022/12/06 07:50:11;;;;;;;11.93;9.53;;;6.90;1.00;;;;;;5033155;28;20063;-64
2022/12/06 07:52:37;;;;;;;11.57;8.37;;;7.00;1.00;;;;;;5032941;28;20041;-63
2022/12/06 07:55:05;;;;;;;15.27;9.57;;;7.00;1.00;;;;;;5033576;28;20025;-64
2022/12/06 07:57:30;;;;;;;17.17;9.50;;;7.00;1.00;;;;;;5019548;28;20488;-64
2022/12/06 07:59:56;;;;;;;15.17;10.70;;;7.10;1.00;;;;;;5033436;28;20036;-64
2022/12/06 08:02:24;;;;;;;16.63;10.43;;;7.00;1.00;;;;;;5008759;28;20128;-64
2022/12/06 08:04:51;;;;;;;17.40;9.40;;;7.00;1.00;;;;;;5004402;28;20025;-63
2022/12/06 08:07:17;;;;;;;19.63;9.93;;;6.90;1.00;;;;;;5023235;28;20117;-64
2022/12/06 08:09:43;;;;;;;16.37;10.67;;;6.90;1.00;;;;;;5026983;28;20079;-64
2022/12/06 08:12:09;;;;;;;18.10;10.53;;;7.00;1.00;;;;;;5017930;28;20033;-64
2022/12/06 08:14:35;;;;;;;18.30;12.10;;;6.90;1.00;;;;;;5031363;28;20029;-64
2022/12/06 08:17:01;;;;;;;22.60;11.37;;;7.00;1.00;;;;;;5028391;28;20106;-63
2022/12/06 08:19:27;;;;;;;19.23;12.17;;;6.90;1.00;;;;;;5014867;28;20022;-64
2022/12/06 08:21:52;;;;;;;20.47;12.27;;;6.80;1.00;;;;;;5025440;28;20037;-64
2022/12/06 08:24:18;;;;;;;26.20;13.43;;;6.90;1.00;;;;;;5032320;28;20383;-64
2022/12/06 08:26:44;;;;;;;21.33;13.57;;;6.70;1.00;;;;;;5032523;28;20104;-64
2022/12/06 08:29:10;;;;;;;22.93;13.67;;;6.70;1.00;;;;;;5032235;28;20021;-64
2022/12/06 08:31:35;;;;;;;22.77;13.73;;;6.60;1.00;;;;;;5022240;28;20033;-64
2022/12/06 08:34:01;;;;;;;22.50;13.70;;;6.70;1.00;;;;;;5030229;28;20468;-64
2022/12/06 08:36:27;;;;;;;24.63;15.43;;;6.70;1.00;;;;;;5032782;28;20366;-64
2022/12/06 08:38:54;;;;;;;23.57;14.17;;;6.80;1.00;;;;;;5032446;28;20037;-63
2022/12/06 08:44:06;;;;;;;23.03;15.77;;;6.60;1.00;;;;;;5020815;28;20072;-63
2022/12/06 08:46:33;;;;;;;23.37;14.27;;;6.70;1.00;;;;;;5032251;28;20051;-63
2022/12/06 08:49:00;;;;;;;20.60;13.77;;;6.60;1.00;;;;;;5029538;28;20436;-63
2022/12/06 08:51:26;;;;;;;21.57;13.23;;;6.40;1.00;;;;;;5028332;28;20452;-63
2022/12/06 08:53:53;;;;;;;26.10;15.13;;;6.60;1.00;;;;;;5031827;28;20076;-64
2022/12/06 08:56:18;;;;;;;28.70;14.87;;;6.70;1.00;;;;;;5023939;28;20138;-64
2022/12/06 08:58:44;;;;;;;22.13;14.27;;;6.70;1.00;;;;;;5032076;28;20057;-63
2022/12/06 09:01:17;;;;;;;25.50;14.33;;;6.70;1.00;;;;;;5030555;28;20029;-64
2022/12/06 09:03:43;;;;;;;22.83;13.80;;;6.50;1.00;;;;;;5031826;28;20482;-63
2022/12/06 09:06:09;;;;;;;19.10;12.93;;;6.50;1.00;;;;;;5027453;28;20176;-63
2022/12/06 09:08:36;;;;;;;21.40;12.70;;;6.40;1.00;;;;;;5017832;28;20352;-63
2022/12/06 09:11:54;;;;;;;22.83;14.47;;;6.50;1.00;;;;;;5024542;28;20041;-63
2022/12/06 09:14:20;;;;;;;20.50;13.17;;;6.50;1.00;;;;;;5013060;28;20025;-64
2022/12/06 09:16:46;;;;;;;24.30;14.27;;;6.60;1.00;;;;;;5027284;28;20029;-64
2022/12/06 09:19:13;;;;;;;25.70;15.17;;;6.70;1.00;;;;;;5031585;28;20036;-64
2022/12/06 09:21:41;;;;;;;29.03;14.50;;;6.80;1.00;;;;;;5021752;28;20030;-64
2022/12/06 09:24:12;;;;;;;22.97;13.97;;;6.90;1.00;;;;;;5031677;28;20018;-64
2022/12/06 09:26:39;;;;;;;26.83;14.83;;;7.00;1.00;;;;;;5030878;28;20025;-64
2022/12/06 09:29:05;;;;;;;28.83;16.73;;;7.00;1.00;;;;;;5016752;28;20033;-63
2022/12/06 09:31:30;;;;;;;32.43;18.27;;;6.90;1.00;;;;;;5020961;28;20033;-64
2022/12/06 09:33:56;;;;;;;35.37;20.90;;;7.00;1.00;;;;;;5009663;28;20026;-64
2022/12/06 09:36:27;;;;;;;35.17;19.30;;;7.10;1.00;;;;;;5010868;28;20121;-64
2022/12/06 09:39:16;;;;;;;37.50;20.40;;;7.00;1.00;;;;;;5009662;28;20429;-64
2022/12/06 09:41:54;;;;;;;34.03;18.87;;;7.10;1.00;;;;;;5012174;28;20030;-63
2022/12/06 09:44:55;;;;;;;33.03;18.43;;;6.90;1.00;;;;;;5011715;28;20093;-64
2022/12/06 09:47:50;;;;;;;37.27;20.30;;;7.10;1.00;;;;;;4970910;28;20407;-64
2022/12/06 09:50:25;;;;;;;;;;;7.00;1.00;;;;;;5006156;28;20044;-64
2022/12/06 09:53:13;;;;;;;39.77;20.23;;;6.80;1.00;;;;;;5009558;28;19975;-64
2022/12/06 09:56:03;;;;;;;39.47;21.60;;;7.10;1.00;;;;;;5011598;28;20034;-64
2022/12/06 09:59:03;;;;;;;40.13;20.10;;;7.10;1.00;;;;;;5000466;28;20038;-64
2022/12/06 10:01:58;;;;;;;39.33;21.73;;;7.10;1.00;;;;;;5030808;28;20044;-64
2022/12/06 10:04:30;;;;;;;43.87;23.03;;;7.10;1.00;;;;;;5029875;28;20391;-64
2022/12/06 10:06:56;;;;;;;44.43;22.33;;;7.20;1.00;;;;;;5031361;28;20029;-65
2022/12/06 10:09:37;;;;;;;45.43;24.10;;;7.20;1.00;;;;;;5017175;28;20484;-66
2022/12/06 10:12:05;;;;;;;43.17;24.30;;;7.30;1.00;;;;;;4999811;28;20030;-66
2022/12/06 10:14:45;;;;;;;37.00;22.80;;;7.10;1.00;;;;;;5025645;28;20060;-66
2022/12/06 10:17:34;;;;;;;45.03;24.70;;;7.20;1.00;;;;;;5031697;28;20376;-66
2022/12/06 10:20:04;;;;;;;41.70;24.03;;;7.30;1.00;;;;;;5023136;28;20068;-66
2022/12/06 10:22:54;;;;;;;40.97;23.37;;;7.30;1.00;;;;;;5029926;28;20026;-67
2022/12/06 10:25:33;;;;;;;41.70;24.50;;;7.40;1.00;;;;;;5031567;28;20026;-67
2022/12/06 10:28:17;;;;;;;37.70;22.90;;;7.40;1.00;;;;;;5031215;28;20109;-68
2022/12/06 10:30:54;;;;;;;43.50;24.17;;;7.40;1.00;;;;;;5006608;28;20037;-67
2022/12/06 10:33:36;;;;;;;45.37;25.60;;;7.50;1.00;;;;;;5029782;28;20084;-67
2022/12/06 10:36:05;;;;;;;44.30;27.03;;;7.60;1.00;;;;;;5010231;28;20176;-68
2022/12/06 10:38:58;;;;;;;47.23;28.03;;;7.70;1.00;;;;;;5031145;28;20026;-68
2022/12/06 10:41:35;;;;;;;51.90;29.30;;;7.70;1.00;;;;;;5024178;28;20022;-68
2022/12/06 10:44:15;;;;;;;47.53;27.77;;;7.70;1.00;;;;;;5014819;28;20022;-68
2022/12/06 10:47:02;;;;;;;53.50;28.67;;;7.70;1.00;;;;;;5014469;28;20026;-67
2022/12/06 10:49:46;;;;;;;47.10;27.03;;;7.80;1.00;;;;;;5024358;28;20419;-67
2022/12/06 10:52:36;;;;;;;44.87;27.37;;;7.90;1.00;;;;;;5020797;28;20038;-67
2022/12/06 10:55:08;;;;;;;44.83;26.93;;;7.90;1.00;;;;;;5008194;28;20109;-67
2022/12/06 10:58:01;;;;;;;48.63;27.30;;;7.90;1.00;;;;;;5015048;28;20030;-66
2022/12/06 11:00:33;;;;;;;46.37;29.03;;;8.00;1.00;;;;;;5020790;28;20018;-65
2022/12/06 11:03:15;;;;;;;46.40;28.33;;;8.00;1.00;;;;;;5034428;28;20083;-65
2022/12/06 11:05:44;;;;;;;48.67;27.57;;;8.10;1.00;;;;;;5009771;28;20029;-65
2022/12/06 11:08:15;;;;;;;47.03;29.10;;;8.00;1.00;;;;;;5022274;28;20034;-65
2022/12/06 11:10:44;;;;;;;49.90;28.93;;;8.10;1.00;;;;;;5019366;28;20367;-65
2022/12/06 11:13:29;;;;;;;48.23;28.60;;;8.10;1.00;;;;;;5033881;28;20033;-65
2022/12/06 11:16:14;;;;;;;43.33;27.40;;;8.20;1.00;;;;;;5008342;28;20029;-65
2022/12/06 11:18:41;;;;;;;44.20;28.95;;;8.20;1.00;;;;;;5015690;28;20053;-65
2022/12/06 11:21:21;;;;;;;49.80;29.23;;;8.10;1.00;;;;;;5022673;28;20037;-65
2022/12/06 11:24:00;;;;;;;47.27;31.23;;;8.20;1.00;;;;;;5034006;28;20113;-66
2022/12/06 11:26:41;;;;;;;45.93;28.37;;;8.10;1.00;;;;;;5024091;28;20021;-66
2022/12/06 11:29:11;;;;;;;48.67;29.60;;;8.00;1.00;;;;;;5022159;28;20505;-66
2022/12/06 11:31:58;;;;;;;43.40;27.87;;;8.10;1.00;;;;;;5033923;28;20037;-67
2022/12/06 11:34:32;;;;;;;50.03;30.20;;;8.10;1.00;;;;;;5013128;28;20025;-66
2022/12/06 11:37:01;;;;;;;41.55;28.63;;;8.10;1.00;;;;;;5027062;28;20426;-65
2022/12/06 11:39:29;;;;;;;42.90;28.70;;;8.10;1.00;;;;;;5031745;28;20030;-66
2022/12/06 11:41:58;;;;;;;43.77;28.60;;;8.20;1.00;;;;;;5032768;28;20061;-66
2022/12/06 11:44:56;;;;;;;42.00;28.55;;;8.20;1.00;;;;;;5009288;28;20038;-65
2022/12/06 11:47:22;;;;;;;37.20;26.40;;;8.30;1.00;;;;;;4999997;28;20064;-65
2022/12/06 11:49:51;;;;;;;38.83;27.57;;;8.20;1.00;;;;;;5030974;28;20399;-66
2022/12/06 11:52:54;;;;;;;45.13;28.08;;;8.20;1.00;;;;;;5032692;28;20108;-65
2022/12/06 11:55:26;;;;;;;35.47;24.57;;;8.30;1.00;;;;;;5003942;28;20496;-65
2022/12/06 11:57:56;;;;;;;38.40;26.88;;;8.30;1.00;;;;;;5004575;28;20036;-66
2022/12/06 12:00:23;;;;;;;37.07;26.73;;;8.30;1.00;;;;;;5020799;28;20474;-66
2022/12/06 12:02:52;;;;;;;38.35;27.92;;;8.40;1.00;;;;;;5030925;28;20033;-66
2022/12/06 12:05:29;;;;;;;38.07;26.80;;;8.40;1.00;;;;;;5022605;28;20088;-65
2022/12/06 12:08:01;;;;;;;37.33;25.83;;;8.40;1.00;;;;;;5031897;28;20029;-66
2022/12/06 12:10:35;;;;;;;36.23;23.47;;;8.40;1.00;;;;;;5032996;28;20144;-66
2022/12/06 12:15:55;;;;;;;28.80;21.07;;;8.50;1.00;;;;;;5011003;28;20064;-67
2022/12/06 12:18:32;;;;;;;36.63;24.97;;;8.60;1.00;;;;;;5028085;28;20025;-66
2022/12/06 12:20:59;;;;;;;35.63;24.77;;;8.60;1.00;;;;;;5020218;28;20429;-66
2022/12/06 12:23:41;;;;;;;36.57;24.63;;;8.60;1.00;;;;;;5007203;28;20032;-66
2022/12/06 12:26:14;;;;;;;34.10;22.27;;;8.70;1.00;;;;;;5021740;28;20106;-65
2022/12/06 12:28:42;;;;;;;32.90;23.38;;;8.70;1.00;;;;;;5018739;28;20048;-65
2022/12/06 12:31:22;;;;;;;32.50;22.00;;;8.70;1.00;;;;;;5023087;28;20036;-65
2022/12/06 12:34:08;;;;;;;30.03;21.23;;;8.80;1.00;;;;;;5008907;28;20037;-66
2022/12/06 12:36:35;;;;;;;27.37;20.37;;;8.80;1.00;;;;;;5029906;28;20034;-65
2022/12/06 12:39:00;;;;;;;22.88;15.40;;;8.80;1.00;;;;;;5021636;28;20087;-65
2022/12/06 12:41:38;;;;;;;27.88;17.33;;;8.90;1.00;;;;;;5032345;28;20022;-65
2022/12/06 12:44:05;;;;;;;28.58;18.35;;;8.90;1.00;;;;;;5018623;28;20017;-65
2022/12/06 12:46:40;;;;;;;26.52;18.38;;;9.00;1.00;;;;;;5032231;28;20037;-66
2022/12/06 12:49:45;;;;;;;22.08;16.75;;;9.00;1.00;;;;;;5028655;28;20403;-65
2022/12/06 12:52:27;;;;;;;22.10;16.90;;;9.10;1.00;;;;;;5023493;28;20046;-65
2022/12/06 12:55:29;;;;;;;20.20;15.90;;;9.10;1.00;;;;;;5030896;28;20083;-65
2022/12/06 12:57:59;;;;;;;21.60;16.10;;;9.10;1.00;;;;;;4999022;28;20026;-65
2022/12/06 13:00:35;;;;;;;23.05;17.85;;;9.10;1.00;;;;;;5025335;28;20459;-65
2022/12/06 13:03:12;;;;;;;22.88;16.45;;;9.10;1.00;;;;;;5031319;28;20067;-65
2022/12/06 13:05:39;;;;;;;22.92;18.08;;;9.20;1.00;;;;;;5032264;28;20523;-66
2022/12/06 13:08:21;;;;;;;24.67;17.23;;;9.20;1.00;;;;;;5026887;28;20022;-65
2022/12/06 13:10:50;;;;;;;21.55;17.40;;;9.20;1.00;;;;;;5026466;28;20048;-65
2022/12/06 13:13:26;;;;;;;21.98;17.20;;;9.30;1.00;;;;;;5031945;28;20017;-65
2022/12/06 13:15:54;;;;;;;23.08;16.67;;;9.30;1.00;;;;;;5031990;28;20048;-65
2022/12/06 13:18:25;;;;;;;22.80;17.75;;;9.40;1.00;;;;;;5031777;28;20052;-65
2022/12/06 13:20:53;;;;;;;20.50;16.13;;;9.40;1.00;;;;;;5031860;28;20487;-65
2022/12/06 13:23:23;;;;;;;19.88;15.82;;;9.30;1.00;;;;;;5027938;28;20029;-65
2022/12/06 13:26:23;;;;;;;18.33;14.63;;;9.30;1.00;;;;;;5032093;28;20025;-65
2022/12/06 13:29:02;;;;;;;21.65;14.82;;;9.30;1.00;;;;;;4992841;28;20333;-65
2022/12/06 13:31:34;;;;;;;18.30;14.07;;;9.30;1.00;;;;;;5011584;28;20044;-65
2022/12/06 13:34:12;;;;;;;17.58;13.65;;;9.40;1.00;;;;;;5031864;28;20525;-65
2022/12/06 13:36:38;;;;;;;17.65;14.45;;;9.50;1.00;;;;;;5024390;28;20037;-65
2022/12/06 13:39:39;;;;;;;16.58;13.68;;;9.50;1.00;;;;;;5031582;28;20116;-65
2022/12/06 13:42:22;;;;;;;19.85;15.45;;;9.50;1.00;;;;;;5007761;28;20034;-65
2022/12/06 13:44:55;;;;;;;16.38;12.68;;;9.50;1.00;;;;;;5002363;28;20030;-65
2022/12/06 13:47:27;;;;;;;19.02;13.80;;;9.50;1.00;;;;;;5012581;28;20026;-65
2022/12/06 13:50:01;;;;;;;16.67;12.57;;;9.50;1.00;;;;;;5009940;28;20038;-65
2022/12/06 13:52:42;;;;;;;18.88;13.13;;;9.60;1.00;;;;;;5003915;28;20126;-65
2022/12/06 13:55:23;;;;;;;18.00;14.27;;;9.60;1.00;;;;;;5007200;28;20073;-65
2022/12/06 13:57:58;;;;;;;16.38;12.98;;;9.60;1.00;;;;;;5014909;28;20053;-65
2022/12/06 14:00:27;;;;;;;15.60;12.40;;;9.60;1.00;;;;;;5026834;28;20038;-65